Time;durP1;ratioP1;P1;durP2;ratioP2;P2;SDS_P1;SDS_P2;PMS_P1;PMS_P2;Temp;Humidity;BMP_temperature;BMP_pressure;BME280_temperature;BME280_humidity;BME280_pressure;Samples;Min_cycle;Max_cycle;Signal;HPM_P1;HPM_P2
2023/09/24 00:00:10;;;;;;;6.13;2.38;;;11.80;99.90;;;;;;5070580;28;20040;-76
2023/09/24 00:02:36;;;;;;;9.30;2.60;;;11.80;99.90;;;;;;5070261;28;20048;-76
2023/09/24 00:05:05;;;;;;;11.38;3.00;;;11.80;99.90;;;;;;5069030;28;20041;-77
2023/09/24 00:07:30;;;;;;;10.43;3.20;;;11.70;99.90;;;;;;5069191;28;20423;-76
2023/09/24 00:10:00;;;;;;;12.90;2.92;;;11.70;99.90;;;;;;5069922;28;20044;-76
2023/09/24 00:12:27;;;;;;;10.73;2.83;;;11.70;99.90;;;;;;5069424;28;20053;-76
2023/09/24 00:14:52;;;;;;;7.57;2.70;;;11.70;99.90;;;;;;5070352;28;20044;-76
2023/09/24 00:17:18;;;;;;;7.97;2.85;;;11.70;99.90;;;;;;5070034;28;20047;-76
2023/09/24 00:19:45;;;;;;;6.05;2.78;;;11.70;99.90;;;;;;5070222;28;20763;-76
2023/09/24 00:22:12;;;;;;;10.18;3.08;;;11.70;99.90;;;;;;5069785;28;20562;-76
2023/09/24 00:24:38;;;;;;;6.82;3.20;;;11.60;99.90;;;;;;5070096;28;20079;-76
2023/09/24 00:27:04;;;;;;;7.45;3.10;;;11.60;99.90;;;;;;5070031;28;20045;-76
2023/09/24 00:29:30;;;;;;;7.75;2.95;;;12.00;99.90;;;;;;5070058;28;20059;-76
2023/09/24 00:31:56;;;;;;;8.65;2.20;;;11.50;99.90;;;;;;5069695;28;20481;-76
2023/09/24 00:34:21;;;;;;;5.85;2.45;;;11.40;99.90;;;;;;5070435;28;20083;-76
2023/09/24 00:36:49;;;;;;;6.13;2.50;;;11.40;99.90;;;;;;5070030;28;20044;-76
2023/09/24 00:39:16;;;;;;;11.13;3.45;;;11.30;99.90;;;;;;5061454;28;20044;-76
2023/09/24 00:41:45;;;;;;;5.93;2.40;;;11.30;99.90;;;;;;5069721;28;20487;-76
2023/09/24 00:44:13;;;;;;;9.73;2.63;;;11.20;99.90;;;;;;5069529;28;20158;-76
2023/09/24 00:46:44;;;;;;;8.43;2.40;;;11.10;99.90;;;;;;5069750;28;20123;-77
2023/09/24 00:49:10;;;;;;;5.13;2.25;;;11.10;99.90;;;;;;5068233;28;20060;-76
2023/09/24 00:51:36;;;;;;;6.25;2.80;;;11.10;99.90;;;;;;5069806;28;20132;-76
2023/09/24 00:54:02;;;;;;;6.13;2.60;;;11.50;99.90;;;;;;5069475;28;20116;-76
2023/09/24 00:56:29;;;;;;;8.35;2.95;;;11.00;99.90;;;;;;5069111;28;20066;-76
2023/09/24 00:58:55;;;;;;;8.25;2.63;;;11.00;99.90;;;;;;5069676;28;20045;-76
2023/09/24 01:01:22;;;;;;;6.00;2.45;;;11.00;99.90;;;;;;5069453;28;20558;-76
2023/09/24 01:03:49;;;;;;;7.70;3.47;;;11.00;99.90;;;;;;5069788;28;20040;-76
2023/09/24 01:06:15;;;;;;;6.93;2.80;;;11.40;99.90;;;;;;5069566;28;20043;-76
2023/09/24 01:08:42;;;;;;;7.80;2.70;;;11.00;99.90;;;;;;5069321;28;20044;-76
2023/09/24 01:11:08;;;;;;;7.00;2.53;;;10.90;99.90;;;;;;5069622;28;20059;-77
2023/09/24 01:13:45;;;;;;;10.40;2.70;;;10.90;99.90;;;;;;5069362;28;20040;-76
2023/09/24 01:16:11;;;;;;;6.43;2.35;;;11.10;99.90;;;;;;5069527;28;20419;-76
2023/09/24 01:18:42;;;;;;;5.90;2.65;;;10.80;99.90;;;;;;5069051;28;20052;-77
2023/09/24 01:21:15;;;;;;;9.98;2.50;;;10.80;99.90;;;;;;5069364;28;20483;-76
2023/09/24 01:23:45;;;;;;;7.57;2.90;;;10.80;99.90;;;;;;5070749;28;20131;-76
2023/09/24 01:26:12;;;;;;;7.30;3.05;;;10.80;99.90;;;;;;5073139;28;20063;-77
2023/09/24 01:28:39;;;;;;;9.10;2.60;;;10.80;99.90;;;;;;5073409;28;20048;-77
2023/09/24 01:31:06;;;;;;;6.38;2.47;;;11.10;99.90;;;;;;5065172;28;20166;-76
2023/09/24 01:33:32;;;;;;;4.50;2.13;;;10.80;99.90;;;;;;5072230;28;20128;-76
2023/09/24 01:35:58;;;;;;;9.30;2.47;;;10.80;99.90;;;;;;5073149;28;20052;-77
2023/09/24 01:38:25;;;;;;;10.07;2.40;;;10.90;99.90;;;;;;5073199;28;20391;-76
2023/09/24 01:40:53;;;;;;;12.15;2.65;;;10.80;99.90;;;;;;5072818;28;20056;-76
2023/09/24 01:43:19;;;;;;;5.68;2.42;;;10.80;99.90;;;;;;5065362;28;20437;-76
2023/09/24 01:45:46;;;;;;;8.43;2.40;;;10.80;99.90;;;;;;5073116;28;20052;-77
2023/09/24 01:48:11;;;;;;;6.65;2.42;;;10.80;99.90;;;;;;5071712;28;20059;-76
2023/09/24 01:50:37;;;;;;;7.60;2.60;;;10.80;99.90;;;;;;5071766;28;20044;-76
2023/09/24 01:53:04;;;;;;;5.60;2.28;;;11.10;99.90;;;;;;5073228;28;20140;-77
2023/09/24 01:55:31;;;;;;;6.43;2.13;;;10.80;99.90;;;;;;5064511;28;20036;-76
2023/09/24 01:57:59;;;;;;;6.32;2.20;;;10.90;99.90;;;;;;5073163;28;20040;-76
2023/09/24 02:00:25;;;;;;;5.28;2.00;;;11.20;99.90;;;;;;5072786;28;20040;-76
2023/09/24 02:02:59;;;;;;;6.00;1.98;;;10.80;99.90;;;;;;5072752;28;20064;-77
2023/09/24 02:05:25;;;;;;;8.68;2.28;;;10.80;99.90;;;;;;5072567;28;20048;-76
2023/09/24 02:07:51;;;;;;;8.32;2.17;;;11.70;99.90;;;;;;5071179;28;20056;-77
2023/09/24 02:10:21;;;;;;;8.32;2.65;;;10.80;99.90;;;;;;5072628;28;20059;-76
2023/09/24 02:12:47;;;;;;;10.48;2.22;;;10.80;99.90;;;;;;5070502;28;20102;-76
2023/09/24 02:15:17;;;;;;;3.83;2.50;;;10.80;99.90;;;;;;5072516;28;20052;-76
2023/09/24 02:17:47;;;;;;;3.42;1.90;;;10.80;99.90;;;;;;5072442;28;20115;-77
2023/09/24 02:20:22;;;;;;;5.90;2.50;;;10.80;99.90;;;;;;5072380;28;20091;-76
2023/09/24 02:22:49;;;;;;;7.75;2.42;;;10.70;99.90;;;;;;5072188;28;20129;-77
2023/09/24 02:25:17;;;;;;;5.60;2.30;;;10.80;99.90;;;;;;5070736;28;20488;-76
2023/09/24 02:27:43;;;;;;;6.57;2.10;;;10.80;99.90;;;;;;5072450;28;20051;-77
2023/09/24 02:30:11;;;;;;;4.45;2.28;;;10.80;99.90;;;;;;5071997;28;20063;-77
2023/09/24 02:32:40;;;;;;;4.50;2.47;;;10.80;99.90;;;;;;5072279;28;20087;-75
2023/09/24 02:35:08;;;;;;;5.18;2.10;;;10.80;99.90;;;;;;5071214;28;20057;-77
2023/09/24 02:37:34;;;;;;;8.07;2.75;;;10.80;99.90;;;;;;5071998;28;20044;-76
2023/09/24 02:40:03;;;;;;;6.38;2.60;;;10.90;99.90;;;;;;5072032;28;20474;-76
2023/09/24 02:42:29;;;;;;;6.47;2.50;;;11.60;99.90;;;;;;5070750;28;20051;-76
2023/09/24 02:44:56;;;;;;;7.97;2.88;;;10.90;99.90;;;;;;5072137;28;20048;-77
2023/09/24 02:47:22;;;;;;;6.00;2.40;;;10.90;99.90;;;;;;5064021;28;20074;-77
2023/09/24 02:49:48;;;;;;;4.53;2.45;;;10.90;99.90;;;;;;5072023;28;20040;-77
2023/09/24 02:52:14;;;;;;;3.90;2.50;;;10.90;99.90;;;;;;5071659;28;20059;-76
2023/09/24 02:54:40;;;;;;;4.47;2.17;;;11.00;99.90;;;;;;5071931;28;20130;-77
2023/09/24 02:57:06;;;;;;;6.50;2.85;;;10.90;99.90;;;;;;5053034;28;20102;-76
2023/09/24 02:59:32;;;;;;;6.80;2.90;;;10.90;99.90;;;;;;5070335;28;20052;-76
2023/09/24 03:01:58;;;;;;;11.90;3.42;;;10.90;99.90;;;;;;5070076;28;20055;-76
2023/09/24 03:04:23;;;;;;;4.85;2.70;;;10.90;99.90;;;;;;5071206;28;20090;-76
2023/09/24 03:06:49;;;;;;;6.18;3.35;;;11.50;99.90;;;;;;5071862;28;20419;-76
2023/09/24 03:09:15;;;;;;;6.15;2.80;;;11.20;99.90;;;;;;5071633;28;20053;-77
2023/09/24 03:11:41;;;;;;;4.90;2.85;;;10.90;99.90;;;;;;5079654;28;20487;-77
2023/09/24 03:14:07;;;;;;;6.78;3.03;;;10.90;99.90;;;;;;5075185;28;20110;-77
2023/09/24 03:16:33;;;;;;;8.93;3.08;;;10.80;99.90;;;;;;5071003;28;20048;-77
2023/09/24 03:19:00;;;;;;;4.43;3.30;;;10.90;99.90;;;;;;5070909;28;20032;-76
2023/09/24 03:21:25;;;;;;;9.32;3.17;;;11.10;99.90;;;;;;5072378;28;20048;-76
2023/09/24 03:23:52;;;;;;;6.47;3.42;;;10.90;99.90;;;;;;5075042;28;20044;-76
2023/09/24 03:26:19;;;;;;;5.93;2.90;;;10.90;99.90;;;;;;5070906;28;20040;-76
2023/09/24 03:28:46;;;;;;;7.13;3.40;;;10.80;99.90;;;;;;5069849;28;20059;-77
2023/09/24 03:31:15;;;;;;;5.65;3.00;;;10.80;99.90;;;;;;5075182;28;20045;-77
2023/09/24 03:33:41;;;;;;;7.05;3.70;;;11.00;99.90;;;;;;5072353;28;20107;-76
2023/09/24 03:36:10;;;;;;;6.10;3.35;;;10.90;99.90;;;;;;5073812;28;20806;-76
2023/09/24 03:38:36;;;;;;;6.68;3.60;;;10.90;99.90;;;;;;5075760;28;20482;-77
2023/09/24 03:41:03;;;;;;;7.53;4.07;;;10.90;99.90;;;;;;5078317;28;20043;-76
2023/09/24 03:43:29;;;;;;;5.43;3.65;;;10.90;99.90;;;;;;5071343;28;20418;-76
2023/09/24 03:45:55;;;;;;;8.98;4.38;;;10.80;99.90;;;;;;5075031;28;20049;-75
2023/09/24 03:48:22;;;;;;;9.05;4.43;;;10.80;99.90;;;;;;5077694;28;20879;-76
2023/09/24 03:50:48;;;;;;;9.70;4.05;;;11.60;99.90;;;;;;5073330;28;20044;-77
2023/09/24 03:53:17;;;;;;;6.90;4.32;;;10.80;99.90;;;;;;5070768;28;20055;-78
2023/09/24 03:55:45;;;;;;;10.00;4.63;;;11.20;99.90;;;;;;5070752;28;20082;-77
2023/09/24 03:58:14;;;;;;;7.85;4.40;;;10.80;99.90;;;;;;5069956;28;20105;-76
2023/09/24 04:00:41;;;;;;;7.72;4.40;;;10.80;99.90;;;;;;5069062;28;20071;-77
2023/09/24 04:03:08;;;;;;;7.28;4.20;;;11.00;99.90;;;;;;5070414;28;20120;-77
2023/09/24 04:05:34;;;;;;;12.10;4.15;;;10.80;99.90;;;;;;5070579;28;20044;-77
2023/09/24 04:08:03;;;;;;;6.28;4.20;;;10.70;99.90;;;;;;5052290;28;20061;-77
2023/09/24 04:10:30;;;;;;;7.93;4.70;;;10.70;99.90;;;;;;5070558;28;20060;-77
2023/09/24 04:12:57;;;;;;;9.35;4.20;;;10.70;99.90;;;;;;5082724;28;20074;-77
2023/09/24 04:15:29;;;;;;;8.52;4.35;;;10.70;99.90;;;;;;5074083;28;20047;-77
2023/09/24 04:17:56;;;;;;;6.65;4.28;;;11.20;99.90;;;;;;5063247;28;20049;-77
2023/09/24 04:20:23;;;;;;;7.22;4.70;;;10.60;99.90;;;;;;5073246;28;20044;-77
2023/09/24 04:22:49;;;;;;;8.43;4.45;;;10.60;99.90;;;;;;5070425;28;20411;-78
2023/09/24 04:25:23;;;;;;;9.43;4.55;;;10.60;99.90;;;;;;5070957;28;20032;-77
2023/09/24 04:27:49;;;;;;;8.02;4.97;;;10.60;99.90;;;;;;5075152;28;20083;-76
2023/09/24 04:30:15;;;;;;;9.60;4.28;;;10.60;99.90;;;;;;5071432;28;20072;-77
2023/09/24 04:32:41;;;;;;;7.43;4.70;;;10.50;99.90;;;;;;5070020;28;20048;-76
2023/09/24 04:35:09;;;;;;;8.65;4.75;;;10.50;99.90;;;;;;5070172;28;20048;-76
2023/09/24 04:37:36;;;;;;;12.80;4.55;;;10.50;99.90;;;;;;5070607;28;20044;-76
2023/09/24 04:40:03;;;;;;;9.73;4.95;;;10.40;99.90;;;;;;5072116;28;20044;-76
2023/09/24 04:42:31;;;;;;;9.60;4.47;;;10.50;99.90;;;;;;5075757;28;20088;-77
2023/09/24 04:44:56;;;;;;;11.07;4.93;;;10.40;99.90;;;;;;5074790;28;20075;-76
2023/09/24 04:47:22;;;;;;;6.35;4.63;;;10.40;99.90;;;;;;5072851;28;20055;-77
2023/09/24 04:49:47;;;;;;;7.75;4.78;;;10.40;99.90;;;;;;5071371;28;20048;-76
2023/09/24 04:52:13;;;;;;;11.93;4.90;;;10.40;99.90;;;;;;5076140;28;20040;-77
2023/09/24 04:54:38;;;;;;;9.13;5.07;;;10.30;99.90;;;;;;5073822;28;20407;-77
2023/09/24 04:57:04;;;;;;;8.43;4.68;;;10.30;99.90;;;;;;5073082;28;20136;-77
2023/09/24 04:59:30;;;;;;;11.60;5.28;;;10.30;99.90;;;;;;5069618;28;20033;-77
2023/09/24 05:01:55;;;;;;;13.68;5.38;;;10.30;99.90;;;;;;5069777;28;20447;-77
2023/09/24 05:04:22;;;;;;;10.43;5.20;;;10.30;99.90;;;;;;5069761;28;20046;-77
2023/09/24 05:06:47;;;;;;;11.18;4.88;;;10.20;99.90;;;;;;5069971;28;20036;-76
2023/09/24 05:09:13;;;;;;;9.73;5.07;;;10.20;99.90;;;;;;5051500;28;20170;-77
2023/09/24 05:11:39;;;;;;;6.78;4.38;;;10.20;99.90;;;;;;5078400;28;20097;-76
2023/09/24 05:14:04;;;;;;;9.95;4.90;;;10.20;99.90;;;;;;5069185;28;20132;-77
2023/09/24 05:16:30;;;;;;;7.78;4.95;;;10.20;99.90;;;;;;5067845;28;20052;-76
2023/09/24 05:18:56;;;;;;;9.48;5.25;;;10.60;99.90;;;;;;5070094;28;20043;-78
2023/09/24 05:21:22;;;;;;;10.30;5.13;;;10.10;99.90;;;;;;5070649;28;20048;-77
2023/09/24 05:23:47;;;;;;;9.02;5.00;;;10.10;99.90;;;;;;5069634;28;20376;-76
2023/09/24 05:26:14;;;;;;;8.57;4.63;;;10.10;99.90;;;;;;5073917;28;20097;-77
2023/09/24 05:28:41;;;;;;;15.98;5.07;;;10.10;99.90;;;;;;5069209;28;20039;-76
2023/09/24 05:31:07;;;;;;;9.48;5.00;;;10.10;99.90;;;;;;5069274;28;20048;-76
2023/09/24 05:33:33;;;;;;;11.07;4.75;;;10.00;99.90;;;;;;5069813;28;20110;-76
2023/09/24 05:35:59;;;;;;;10.10;5.35;;;10.10;99.90;;;;;;5077523;28;20044;-76
2023/09/24 05:38:27;;;;;;;9.75;5.30;;;10.00;99.90;;;;;;5086132;28;20487;-76
2023/09/24 05:40:52;;;;;;;9.05;4.80;;;10.00;99.90;;;;;;5070920;28;20542;-76
2023/09/24 05:43:19;;;;;;;9.18;5.22;;;10.40;99.90;;;;;;5075317;28;20132;-76
2023/09/24 05:45:48;;;;;;;8.50;4.53;;;10.00;99.90;;;;;;5068941;28;20075;-76
2023/09/24 05:48:15;;;;;;;9.32;5.53;;;10.00;99.90;;;;;;5068731;28;20149;-76
2023/09/24 05:50:41;;;;;;;10.73;5.65;;;10.00;99.90;;;;;;5074987;28;20764;-76
2023/09/24 05:53:08;;;;;;;11.95;5.65;;;10.00;99.90;;;;;;5085958;28;20119;-76
2023/09/24 05:55:34;;;;;;;12.88;5.20;;;9.90;99.90;;;;;;5069949;28;20076;-77
2023/09/24 05:58:00;;;;;;;9.98;5.65;;;10.00;99.90;;;;;;5067783;28;20084;-76
2023/09/24 06:00:28;;;;;;;10.80;5.25;;;10.00;99.90;;;;;;5068955;28;20120;-77
2023/09/24 06:02:54;;;;;;;13.40;6.32;;;10.70;99.90;;;;;;5069770;28;20048;-76
2023/09/24 06:05:19;;;;;;;13.73;6.05;;;10.60;99.90;;;;;;5069242;28;20037;-76
2023/09/24 06:07:45;;;;;;;9.65;5.43;;;10.00;99.90;;;;;;5061459;28;20131;-77
2023/09/24 06:10:11;;;;;;;9.32;5.10;;;10.40;99.90;;;;;;5070079;28;20053;-77
2023/09/24 06:12:36;;;;;;;9.93;5.57;;;10.90;99.90;;;;;;5072977;28;20040;-77
2023/09/24 06:15:03;;;;;;;11.02;5.40;;;10.10;99.90;;;;;;5072689;28;20107;-77
2023/09/24 06:17:29;;;;;;;15.75;6.57;;;10.10;99.90;;;;;;5075022;28;20044;-77
2023/09/24 06:19:58;;;;;;;8.60;5.28;;;10.10;99.90;;;;;;5072781;28;20056;-77
2023/09/24 06:22:23;;;;;;;10.15;5.95;;;10.10;99.90;;;;;;5073743;28;20040;-76
2023/09/24 06:24:50;;;;;;;13.95;5.70;;;10.20;99.90;;;;;;5075189;28;20383;-78
2023/09/24 06:27:16;;;;;;;12.07;5.82;;;10.50;99.90;;;;;;5075605;28;20036;-78
2023/09/24 06:29:43;;;;;;;9.95;5.57;;;10.30;99.90;;;;;;5075498;28;20098;-76
2023/09/24 06:32:08;;;;;;;14.10;5.82;;;10.30;99.90;;;;;;5072421;28;20130;-77
2023/09/24 06:34:36;;;;;;;14.07;6.03;;;10.30;99.90;;;;;;5072091;28;20487;-77
2023/09/24 06:37:02;;;;;;;15.20;6.65;;;10.40;99.90;;;;;;5072706;28;20048;-77
2023/09/24 06:39:29;;;;;;;11.00;5.43;;;10.40;99.90;;;;;;5070819;28;20047;-76
2023/09/24 06:41:55;;;;;;;11.23;6.20;;;10.40;99.90;;;;;;5069482;28;20048;-77
2023/09/24 06:44:23;;;;;;;16.15;5.85;;;10.50;99.90;;;;;;5073309;28;20052;-77
2023/09/24 06:46:51;;;;;;;11.13;6.03;;;10.50;99.90;;;;;;5072313;28;20070;-76
2023/09/24 06:49:17;;;;;;;14.02;6.93;;;10.60;99.90;;;;;;5072200;28;20376;-77
2023/09/24 06:51:42;;;;;;;12.80;6.53;;;10.70;99.90;;;;;;5072962;28;20181;-76
2023/09/24 06:54:08;;;;;;;13.23;6.75;;;10.70;99.90;;;;;;5072176;28;20055;-77
2023/09/24 06:56:34;;;;;;;13.07;5.70;;;10.70;99.90;;;;;;5071993;28;20504;-76
2023/09/24 06:58:59;;;;;;;12.63;5.95;;;10.80;99.90;;;;;;5072418;28;20036;-77
2023/09/24 07:01:25;;;;;;;11.75;5.90;;;11.50;99.90;;;;;;5070454;28;20062;-77
2023/09/24 07:03:51;;;;;;;12.23;6.47;;;10.90;99.90;;;;;;5073431;28;20052;-77
2023/09/24 07:06:17;;;;;;;12.38;6.35;;;10.90;99.90;;;;;;5073861;28;20063;-77
2023/09/24 07:08:43;;;;;;;15.82;6.50;;;11.20;99.90;;;;;;5071634;28;20048;-77
2023/09/24 07:11:34;;;;;;;11.70;6.65;;;10.90;99.90;;;;;;5075461;28;20071;-77
2023/09/24 07:14:01;;;;;;;16.27;6.78;;;11.00;99.90;;;;;;5071740;28;20041;-76
2023/09/24 07:16:27;;;;;;;13.95;6.43;;;11.10;99.90;;;;;;5069909;28;20544;-77
2023/09/24 07:18:54;;;;;;;14.98;5.57;;;11.10;99.90;;;;;;5071896;28;20033;-78
2023/09/24 07:21:21;;;;;;;11.02;5.68;;;11.20;99.90;;;;;;5071437;28;20072;-76
2023/09/24 07:23:49;;;;;;;12.93;6.57;;;12.10;99.90;;;;;;5072048;28;20040;-76
2023/09/24 07:26:15;;;;;;;18.85;6.28;;;11.20;99.90;;;;;;5072505;28;20079;-78
2023/09/24 07:28:41;;;;;;;15.88;6.70;;;11.60;99.90;;;;;;5072121;28;20608;-79
2023/09/24 07:31:13;;;;;;;10.57;6.20;;;11.30;99.90;;;;;;5071782;28;20048;-76
2023/09/24 07:33:42;;;;;;;13.00;6.35;;;11.40;99.90;;;;;;5072650;28;20111;-77
2023/09/24 07:36:08;;;;;;;14.30;6.05;;;11.60;99.90;;;;;;5071860;28;20124;-74
2023/09/24 07:38:34;;;;;;;12.70;6.30;;;12.00;99.90;;;;;;5071673;28;20394;-77
2023/09/24 07:41:00;;;;;;;11.10;5.88;;;11.60;99.90;;;;;;5070544;28;20124;-76
2023/09/24 07:43:25;;;;;;;14.75;6.25;;;11.70;99.90;;;;;;5071938;28;20396;-78
2023/09/24 07:45:51;;;;;;;13.98;6.25;;;11.90;99.90;;;;;;5087291;28;20056;-75
2023/09/24 07:48:17;;;;;;;15.10;6.38;;;11.90;99.90;;;;;;5077993;28;20044;-77
2023/09/24 07:50:53;;;;;;;11.25;5.75;;;12.30;99.90;;;;;;5071533;28;20029;-76
2023/09/24 07:53:19;;;;;;;15.27;5.90;;;12.90;99.90;;;;;;5080929;28;20096;-76
2023/09/24 07:55:45;;;;;;;15.95;6.03;;;12.10;99.90;;;;;;5077957;28;20040;-75
2023/09/24 07:58:11;;;;;;;12.65;5.88;;;12.20;99.90;;;;;;5088316;28;20063;-79
2023/09/24 08:00:38;;;;;;;14.15;6.03;;;12.30;99.90;;;;;;5080868;28;20052;-76
2023/09/24 08:03:04;;;;;;;13.90;5.95;;;12.60;99.90;;;;;;5075310;28;20062;-76
2023/09/24 08:05:30;;;;;;;13.40;6.38;;;12.40;99.90;;;;;;5070854;28;20621;-77
2023/09/24 08:07:56;;;;;;;9.40;5.28;;;12.60;99.90;;;;;;5070802;28;20094;-77
2023/09/24 08:10:21;;;;;;;10.98;5.20;;;12.60;99.90;;;;;;5073157;28;20090;-77
2023/09/24 08:12:47;;;;;;;12.05;5.55;;;12.70;99.90;;;;;;5073097;28;20068;-77
2023/09/24 08:15:12;;;;;;;14.15;5.28;;;13.80;99.90;;;;;;5075376;28;20052;-76
2023/09/24 08:17:39;;;;;;;11.90;5.20;;;13.30;99.90;;;;;;5069650;28;20083;-76
2023/09/24 08:20:05;;;;;;;13.88;5.60;;;13.10;99.90;;;;;;5070782;28;20513;-76
2023/09/24 08:22:31;;;;;;;13.15;5.28;;;13.20;99.90;;;;;;5078967;28;20044;-76
2023/09/24 08:24:56;;;;;;;12.23;5.15;;;13.40;99.90;;;;;;5071374;28;20119;-77
2023/09/24 08:27:22;;;;;;;11.82;5.70;;;13.50;99.90;;;;;;5075129;28;20415;-78
2023/09/24 08:29:47;;;;;;;13.82;4.65;;;13.60;99.90;;;;;;5075637;28;20032;-76
2023/09/24 08:32:13;;;;;;;11.77;5.07;;;13.70;99.90;;;;;;5074103;28;20040;-75
2023/09/24 08:34:39;;;;;;;11.75;4.82;;;13.90;99.90;;;;;;5072660;28;20037;-76
2023/09/24 08:37:04;;;;;;;9.15;4.32;;;14.50;99.90;;;;;;5077752;28;20087;-76
2023/09/24 08:39:30;;;;;;;9.23;4.15;;;14.70;99.90;;;;;;5077788;28;20126;-76
2023/09/24 08:41:56;;;;;;;9.95;4.22;;;14.70;99.90;;;;;;5069038;28;20076;-76
2023/09/24 08:44:24;;;;;;;11.18;4.65;;;15.00;99.90;;;;;;5069224;28;20055;-77
2023/09/24 08:46:51;;;;;;;16.40;4.57;;;14.80;99.90;;;;;;5070835;28;20048;-77
2023/09/24 08:49:18;;;;;;;10.00;4.28;;;15.10;99.90;;;;;;5069300;28;20059;-76
2023/09/24 08:51:45;;;;;;;9.05;4.40;;;15.40;99.90;;;;;;5084627;28;20036;-76
2023/09/24 08:54:12;;;;;;;9.75;3.85;;;15.50;99.90;;;;;;5078652;28;20052;-76
2023/09/24 08:56:38;;;;;;;12.85;4.50;;;15.60;99.90;;;;;;5070726;28;20044;-76
2023/09/24 08:59:04;;;;;;;9.88;4.18;;;15.70;99.90;;;;;;5071055;28;20399;-81
2023/09/24 09:01:30;;;;;;;12.20;3.97;;;15.90;99.90;;;;;;5070282;28;20045;-79
2023/09/24 09:03:55;;;;;;;8.52;3.67;;;16.00;99.90;;;;;;5072656;28;20050;-75
2023/09/24 09:06:31;;;;;;;11.02;4.03;;;16.20;99.90;;;;;;5072829;28;20040;-74
2023/09/24 09:08:57;;;;;;;12.55;3.45;;;16.40;99.90;;;;;;5068861;28;20499;-78
2023/09/24 09:11:37;;;;;;;6.80;2.95;;;16.50;99.90;;;;;;5068542;28;20053;-75
2023/09/24 09:14:04;;;;;;;12.50;3.20;;;16.70;99.90;;;;;;5064656;28;20044;-76
2023/09/24 09:16:29;;;;;;;10.50;3.08;;;16.80;99.90;;;;;;5070125;28;20177;-75
2023/09/24 09:19:02;;;;;;;7.45;3.30;;;17.00;99.90;;;;;;5068484;28;20549;-76
2023/09/24 09:21:28;;;;;;;10.48;3.00;;;17.10;99.90;;;;;;5071913;28;20044;-75
2023/09/24 09:23:54;;;;;;;9.38;3.15;;;17.20;99.90;;;;;;5070960;28;20047;-76
2023/09/24 09:26:26;;;;;;;12.23;3.53;;;17.30;99.90;;;;;;5071991;28;20036;-75
2023/09/24 09:28:52;;;;;;;7.75;2.83;;;17.40;99.90;;;;;;5071498;28;20104;-78
2023/09/24 09:31:18;;;;;;;10.73;2.95;;;17.40;99.90;;;;;;5070698;28;20481;-78
2023/09/24 09:33:45;;;;;;;13.00;2.75;;;17.70;99.90;;;;;;5069698;28;20048;-76
2023/09/24 09:36:27;;;;;;;8.32;2.42;;;17.70;99.90;;;;;;5069666;28;20045;-75
2023/09/24 09:38:54;;;;;;;9.68;2.85;;;17.80;99.90;;;;;;5069266;28;20049;-74
2023/09/24 09:41:23;;;;;;;8.32;2.40;;;18.00;99.90;;;;;;5069218;28;20357;-75
2023/09/24 09:43:52;;;;;;;7.40;2.45;;;18.20;99.90;;;;;;5069175;28;20110;-76
2023/09/24 09:46:22;;;;;;;6.97;2.35;;;18.30;99.90;;;;;;5064668;28;20582;-75
2023/09/24 09:48:54;;;;;;;12.27;2.65;;;18.30;99.90;;;;;;5071883;28;20097;-78
2023/09/24 09:51:22;;;;;;;8.48;2.20;;;18.40;99.90;;;;;;5073162;28;20033;-75
2023/09/24 09:53:50;;;;;;;6.80;2.40;;;18.40;99.90;;;;;;5073343;28;20040;-75
2023/09/24 09:56:16;;;;;;;11.43;3.30;;;18.40;99.90;;;;;;5071666;28;20210;-75
2023/09/24 09:58:46;;;;;;;10.38;2.30;;;18.50;99.90;;;;;;5073027;28;20602;-75
2023/09/24 10:01:12;;;;;;;5.40;2.13;;;18.60;99.90;;;;;;5073209;28;20056;-75
2023/09/24 10:03:42;;;;;;;11.60;2.50;;;18.70;99.90;;;;;;5073194;28;20138;-80
2023/09/24 10:06:10;;;;;;;7.93;1.92;;;18.60;99.90;;;;;;5073021;28;20123;-77
2023/09/24 10:08:44;;;;;;;8.27;2.45;;;18.70;99.90;;;;;;5073378;28;20229;-76
2023/09/24 10:11:12;;;;;;;11.05;2.25;;;18.80;99.90;;;;;;5055003;28;20048;-80
2023/09/24 10:13:52;;;;;;;8.07;2.00;;;18.90;99.90;;;;;;5072960;28;20843;-77
2023/09/24 10:16:27;;;;;;;7.22;2.40;;;18.90;99.90;;;;;;5072835;28;20127;-77
2023/09/24 10:19:10;;;;;;;6.15;1.67;;;19.00;99.90;;;;;;5065083;28;20075;-79
2023/09/24 10:21:37;;;;;;;5.63;1.50;;;19.10;99.90;;;;;;5072719;28;20045;-78
2023/09/24 10:24:12;;;;;;;8.15;2.00;;;19.20;99.90;;;;;;5071411;28;20044;-76
2023/09/24 10:27:02;;;;;;;6.70;1.80;;;19.20;99.90;;;;;;5072676;28;20094;-76
2023/09/24 10:29:46;;;;;;;10.32;1.60;;;19.30;99.90;;;;;;5072745;28;20044;-77
2023/09/24 10:32:13;;;;;;;11.15;2.00;;;19.40;99.90;;;;;;5063932;28;20067;-76
2023/09/24 10:34:51;;;;;;;8.27;1.95;;;19.30;99.90;;;;;;5071799;28;20048;-77
2023/09/24 10:37:21;;;;;;;4.47;2.00;;;19.50;99.90;;;;;;5063635;28;20059;-77
2023/09/24 10:39:59;;;;;;;5.07;1.50;;;19.40;99.90;;;;;;5070555;28;20048;-77
2023/09/24 10:42:26;;;;;;;9.93;1.58;;;19.50;99.90;;;;;;5071490;28;20119;-76
2023/09/24 10:45:07;;;;;;;8.90;1.80;;;19.50;99.90;;;;;;5071666;28;20532;-78
2023/09/24 10:47:42;;;;;;;6.13;1.77;;;19.60;99.90;;;;;;5070350;28;20049;-76
2023/09/24 10:50:13;;;;;;;7.97;1.58;;;19.40;99.90;;;;;;5053857;28;20496;-77
2023/09/24 10:52:54;;;;;;;5.97;1.70;;;19.60;99.90;;;;;;5072104;28;20072;-79
2023/09/24 10:55:41;;;;;;;6.68;1.80;;;19.50;99.90;;;;;;5071833;28;20044;-76
2023/09/24 10:58:14;;;;;;;6.68;2.03;;;19.60;99.90;;;;;;5070831;28;20048;-76
2023/09/24 11:00:45;;;;;;;4.90;1.70;;;19.80;99.90;;;;;;5071826;28;20040;-75
2023/09/24 11:03:14;;;;;;;7.07;1.67;;;19.90;99.90;;;;;;5071392;28;20515;-75
2023/09/24 11:05:39;;;;;;;6.15;1.77;;;20.00;99.90;;;;;;5070312;28;20059;-77
2023/09/24 11:08:05;;;;;;;8.43;1.40;;;20.00;99.90;;;;;;5071796;28;20490;-77
2023/09/24 11:10:31;;;;;;;8.07;1.70;;;20.00;99.90;;;;;;5071754;28;20166;-77
2023/09/24 11:13:02;;;;;;;5.45;1.60;;;20.00;99.90;;;;;;5071730;28;20380;-76
2023/09/24 11:15:38;;;;;;;5.82;1.77;;;20.10;99.90;;;;;;5070505;28;20098;-76
2023/09/24 11:18:13;;;;;;;3.70;1.30;;;20.20;99.90;;;;;;5070969;28;20044;-80
2023/09/24 11:20:46;;;;;;;;;;;20.40;99.90;;;;;;5070781;28;20045;-77
2023/09/24 11:23:13;;;;;;;5.38;1.60;;;20.20;99.90;;;;;;5070772;28;20374;-76
2023/09/24 11:25:39;;;;;;;6.28;1.60;;;20.30;99.90;;;;;;5071316;28;20040;-78
2023/09/24 11:28:06;;;;;;;5.93;1.30;;;20.10;99.90;;;;;;5071325;28;20040;-75
2023/09/24 11:30:43;;;;;;;4.85;1.70;;;20.10;99.90;;;;;;5071268;28;20059;-76
2023/09/24 11:33:16;;;;;;;5.25;1.63;;;20.30;99.90;;;;;;5063688;28;20044;-76
2023/09/24 11:35:44;;;;;;;5.88;1.25;;;20.20;99.90;;;;;;5069826;28;20060;-77
2023/09/24 11:38:09;;;;;;;4.82;1.70;;;20.30;99.90;;;;;;5061766;28;20056;-77
2023/09/24 11:40:37;;;;;;;4.60;1.75;;;20.30;99.90;;;;;;5070185;28;20039;-75
2023/09/24 11:43:04;;;;;;;5.88;1.70;;;20.30;99.90;;;;;;5070664;28;20116;-75
2023/09/24 11:45:49;;;;;;;7.63;1.60;;;20.30;99.90;;;;;;5069204;28;20048;-75
2023/09/24 11:48:23;;;;;;;3.80;1.10;;;20.20;99.90;;;;;;5070938;28;20445;-76
2023/09/24 11:50:53;;;;;;;5.85;1.55;;;20.20;99.90;;;;;;5071184;28;20041;-76
2023/09/24 11:53:21;;;;;;;4.72;1.48;;;20.20;99.90;;;;;;5069272;28;20056;-75
2023/09/24 11:55:48;;;;;;;6.13;1.38;;;20.30;99.90;;;;;;5070898;28;20052;-78
2023/09/24 11:58:14;;;;;;;4.78;1.50;;;20.30;99.90;;;;;;5070554;28;20044;-78
2023/09/24 12:00:43;;;;;;;4.05;1.67;;;20.30;99.90;;;;;;5070418;28;20044;-76
2023/09/24 12:03:09;;;;;;;7.30;1.40;;;20.30;99.90;;;;;;5070348;28;20084;-75
2023/09/24 12:05:35;;;;;;;5.15;1.25;;;20.50;99.90;;;;;;5062264;28;20145;-76
2023/09/24 12:08:04;;;;;;;4.38;1.50;;;20.40;99.90;;;;;;5069943;28;20052;-79
2023/09/24 12:10:32;;;;;;;6.78;1.40;;;20.60;99.90;;;;;;5070244;28;20131;-83
2023/09/24 12:13:01;;;;;;;4.68;1.48;;;20.70;99.90;;;;;;5068988;28;20041;-75
2023/09/24 12:15:29;;;;;;;7.25;1.65;;;20.70;99.90;;;;;;5068876;28;20060;-78
2023/09/24 12:17:56;;;;;;;5.03;1.05;;;20.90;99.90;;;;;;5070422;28;20116;-80
2023/09/24 12:20:22;;;;;;;3.67;1.15;;;20.80;99.90;;;;;;5070102;28;20044;-76
2023/09/24 12:22:48;;;;;;;5.18;1.13;;;20.80;99.90;;;;;;5070196;28;20048;-78
2023/09/24 12:25:14;;;;;;;4.80;1.25;;;20.90;99.90;;;;;;5068951;28;20048;-76
2023/09/24 12:27:40;;;;;;;3.80;0.90;;;21.00;99.90;;;;;;5068550;28;20402;-76
2023/09/24 12:30:08;;;;;;;4.30;1.30;;;21.10;99.90;;;;;;5070021;28;20041;-79
2023/09/24 12:32:38;;;;;;;4.43;1.20;;;21.20;99.90;;;;;;5070052;28;20495;-75
2023/09/24 12:35:04;;;;;;;4.90;1.30;;;21.20;99.90;;;;;;5069833;28;20127;-78
2023/09/24 12:37:32;;;;;;;4.97;1.30;;;21.40;99.90;;;;;;5070504;28;20072;-80
2023/09/24 12:39:58;;;;;;;4.82;1.20;;;21.30;99.90;;;;;;5068460;28;20048;-80
2023/09/24 12:42:27;;;;;;;4.07;1.00;;;21.40;99.90;;;;;;5070186;28;20055;-76
2023/09/24 12:44:57;;;;;;;3.63;1.00;;;21.30;99.90;;;;;;5069522;28;20063;-77